sensor_id;sensor_type;location;lat;lon;timestamp;temperature;humidity
11304;DHT22;5707;49.588;12.148;2023-11-21T00:01:35;6.30;99.90
11304;DHT22;5707;49.588;12.148;2023-11-21T00:04:01;6.20;99.90
11304;DHT22;5707;49.588;12.148;2023-11-21T00:06:27;6.30;99.90
11304;DHT22;5707;49.588;12.148;2023-11-21T00:08:53;6.20;99.90
11304;DHT22;5707;49.588;12.148;2023-11-21T00:11:18;6.30;99.90
11304;DHT22;5707;49.588;12.148;2023-11-21T00:13:44;6.20;99.90
11304;DHT22;5707;49.588;12.148;2023-11-21T00:16:10;6.30;99.90
11304;DHT22;5707;49.588;12.148;2023-11-21T00:18:36;6.20;99.90
11304;DHT22;5707;49.588;12.148;2023-11-21T00:21:02;6.30;99.90
11304;DHT22;5707;49.588;12.148;2023-11-21T00:23:28;6.30;99.90
11304;DHT22;5707;49.588;12.148;2023-11-21T00:25:54;6.30;99.90
11304;DHT22;5707;49.588;12.148;2023-11-21T00:28:20;6.30;99.90
11304;DHT22;5707;49.588;12.148;2023-11-21T00:30:45;6.30;99.90
11304;DHT22;5707;49.588;12.148;2023-11-21T00:33:11;6.30;99.90
11304;DHT22;5707;49.588;12.148;2023-11-21T00:35:36;6.30;99.90
11304;DHT22;5707;49.588;12.148;2023-11-21T00:38:02;6.30;99.90
11304;DHT22;5707;49.588;12.148;2023-11-21T00:40:28;6.40;99.90
11304;DHT22;5707;49.588;12.148;2023-11-21T00:42:54;6.40;99.90
11304;DHT22;5707;49.588;12.148;2023-11-21T00:45:21;6.40;99.90
11304;DHT22;5707;49.588;12.148;2023-11-21T00:47:47;6.40;99.90
11304;DHT22;5707;49.588;12.148;2023-11-21T00:50:12;6.40;99.90
11304;DHT22;5707;49.588;12.148;2023-11-21T00:52:38;6.40;99.90
11304;DHT22;5707;49.588;12.148;2023-11-21T00:55:04;6.40;99.90
11304;DHT22;5707;49.588;12.148;2023-11-21T00:57:32;6.40;99.90
11304;DHT22;5707;49.588;12.148;2023-11-21T00:59:58;6.40;99.90
11304;DHT22;5707;49.588;12.148;2023-11-21T01:02:24;6.40;99.90
11304;DHT22;5707;49.588;12.148;2023-11-21T01:04:50;6.40;99.90
11304;DHT22;5707;49.588;12.148;2023-11-21T01:07:16;6.30;99.90
11304;DHT22;5707;49.588;12.148;2023-11-21T01:09:41;6.40;99.90
11304;DHT22;5707;49.588;12.148;2023-11-21T01:12:09;6.40;99.90
11304;DHT22;5707;49.588;12.148;2023-11-21T01:14:35;6.40;99.90
11304;DHT22;5707;49.588;12.148;2023-11-21T01:17:02;6.40;99.90
11304;DHT22;5707;49.588;12.148;2023-11-21T01:19:29;6.30;99.90
11304;DHT22;5707;49.588;12.148;2023-11-21T01:21:55;6.30;99.90
11304;DHT22;5707;49.588;12.148;2023-11-21T01:24:21;6.30;99.90
11304;DHT22;5707;49.588;12.148;2023-11-21T01:26:46;6.30;99.90
11304;DHT22;5707;49.588;12.148;2023-11-21T01:29:12;6.30;99.90
11304;DHT22;5707;49.588;12.148;2023-11-21T01:31:38;6.30;99.90
11304;DHT22;5707;49.588;12.148;2023-11-21T01:34:03;6.30;99.90
11304;DHT22;5707;49.588;12.148;2023-11-21T01:36:31;6.20;99.90
11304;DHT22;5707;49.588;12.148;2023-11-21T01:38:57;6.20;99.90
11304;DHT22;5707;49.588;12.148;2023-11-21T01:41:27;6.20;99.90
11304;DHT22;5707;49.588;12.148;2023-11-21T01:43:54;6.20;99.90
11304;DHT22;5707;49.588;12.148;2023-11-21T01:46:20;6.10;99.90
11304;DHT22;5707;49.588;12.148;2023-11-21T01:48:48;6.10;99.90
11304;DHT22;5707;49.588;12.148;2023-11-21T01:51:14;6.10;99.90
11304;DHT22;5707;49.588;12.148;2023-11-21T01:53:40;6.10;99.90
11304;DHT22;5707;49.588;12.148;2023-11-21T01:56:07;6.10;99.90
11304;DHT22;5707;49.588;12.148;2023-11-21T01:58:34;6.10;99.90
11304;DHT22;5707;49.588;12.148;2023-11-21T02:00:59;6.10;99.90
11304;DHT22;5707;49.588;12.148;2023-11-21T02:03:25;6.20;99.90
11304;DHT22;5707;49.588;12.148;2023-11-21T02:05:52;6.20;99.90
11304;DHT22;5707;49.588;12.148;2023-11-21T02:08:19;6.20;99.90
11304;DHT22;5707;49.588;12.148;2023-11-21T02:10:45;6.20;99.90
11304;DHT22;5707;49.588;12.148;2023-11-21T02:13:11;6.30;99.90
11304;DHT22;5707;49.588;12.148;2023-11-21T02:15:37;6.30;99.90
11304;DHT22;5707;49.588;12.148;2023-11-21T02:18:04;6.30;99.90
11304;DHT22;5707;49.588;12.148;2023-11-21T02:20:32;6.30;99.90
11304;DHT22;5707;49.588;12.148;2023-11-21T02:23:00;6.30;99.90
11304;DHT22;5707;49.588;12.148;2023-11-21T02:25:31;6.30;99.90
11304;DHT22;5707;49.588;12.148;2023-11-21T02:27:58;6.30;99.90
11304;DHT22;5707;49.588;12.148;2023-11-21T02:30:24;6.30;99.90
11304;DHT22;5707;49.588;12.148;2023-11-21T02:32:54;6.30;99.90
11304;DHT22;5707;49.588;12.148;2023-11-21T02:35:20;6.30;99.90
11304;DHT22;5707;49.588;12.148;2023-11-21T02:37:51;6.30;99.90
11304;DHT22;5707;49.588;12.148;2023-11-21T02:40:17;6.30;99.90
11304;DHT22;5707;49.588;12.148;2023-11-21T02:42:46;6.30;99.90
11304;DHT22;5707;49.588;12.148;2023-11-21T02:45:13;6.30;99.90
11304;DHT22;5707;49.588;12.148;2023-11-21T02:47:39;6.40;99.90
11304;DHT22;5707;49.588;12.148;2023-11-21T02:50:06;6.40;99.90
11304;DHT22;5707;49.588;12.148;2023-11-21T02:52:34;6.40;99.90
11304;DHT22;5707;49.588;12.148;2023-11-21T02:55:03;6.40;99.90
11304;DHT22;5707;49.588;12.148;2023-11-21T02:57:29;6.40;99.90
11304;DHT22;5707;49.588;12.148;2023-11-21T02:59:54;6.40;99.90
11304;DHT22;5707;49.588;12.148;2023-11-21T03:02:20;6.30;99.90
11304;DHT22;5707;49.588;12.148;2023-11-21T03:04:46;6.30;99.90
11304;DHT22;5707;49.588;12.148;2023-11-21T03:07:13;6.30;99.90
11304;DHT22;5707;49.588;12.148;2023-11-21T03:09:39;6.30;99.90
11304;DHT22;5707;49.588;12.148;2023-11-21T03:12:05;6.30;99.90
11304;DHT22;5707;49.588;12.148;2023-11-21T03:14:30;6.30;99.90
11304;DHT22;5707;49.588;12.148;2023-11-21T03:16:57;6.30;99.90
11304;DHT22;5707;49.588;12.148;2023-11-21T03:19:22;6.20;99.90
11304;DHT22;5707;49.588;12.148;2023-11-21T03:21:48;6.20;99.90
11304;DHT22;5707;49.588;12.148;2023-11-21T03:24:14;6.20;99.90
11304;DHT22;5707;49.588;12.148;2023-11-21T03:26:45;6.10;99.90
11304;DHT22;5707;49.588;12.148;2023-11-21T03:29:12;6.20;99.90
11304;DHT22;5707;49.588;12.148;2023-11-21T03:31:37;6.10;99.90
11304;DHT22;5707;49.588;12.148;2023-11-21T03:34:03;6.10;99.90
11304;DHT22;5707;49.588;12.148;2023-11-21T03:36:29;6.10;99.90
11304;DHT22;5707;49.588;12.148;2023-11-21T03:38:54;6.10;99.90
11304;DHT22;5707;49.588;12.148;2023-11-21T03:41:21;6.00;99.90
11304;DHT22;5707;49.588;12.148;2023-11-21T03:43:46;6.10;99.90
11304;DHT22;5707;49.588;12.148;2023-11-21T03:46:12;6.00;99.90
11304;DHT22;5707;49.588;12.148;2023-11-21T03:48:38;6.00;99.90
11304;DHT22;5707;49.588;12.148;2023-11-21T03:51:04;6.00;99.90
11304;DHT22;5707;49.588;12.148;2023-11-21T03:53:29;5.90;99.90
11304;DHT22;5707;49.588;12.148;2023-11-21T03:55:55;5.90;99.90
11304;DHT22;5707;49.588;12.148;2023-11-21T03:58:20;5.90;99.90
11304;DHT22;5707;49.588;12.148;2023-11-21T04:00:47;5.90;99.90
11304;DHT22;5707;49.588;12.148;2023-11-21T04:03:14;5.90;99.90
11304;DHT22;5707;49.588;12.148;2023-11-21T04:05:40;5.90;99.90
11304;DHT22;5707;49.588;12.148;2023-11-21T04:08:06;6.00;99.90
11304;DHT22;5707;49.588;12.148;2023-11-21T04:10:32;6.00;99.90
11304;DHT22;5707;49.588;12.148;2023-11-21T04:12:58;6.00;99.90
11304;DHT22;5707;49.588;12.148;2023-11-21T04:15:23;6.00;99.90
11304;DHT22;5707;49.588;12.148;2023-11-21T04:17:49;6.00;99.90
11304;DHT22;5707;49.588;12.148;2023-11-21T04:20:15;6.00;99.90
11304;DHT22;5707;49.588;12.148;2023-11-21T04:22:41;6.00;99.90
11304;DHT22;5707;49.588;12.148;2023-11-21T04:25:15;6.00;99.90
11304;DHT22;5707;49.588;12.148;2023-11-21T04:27:42;6.00;99.90
11304;DHT22;5707;49.588;12.148;2023-11-21T04:30:11;6.00;99.90
11304;DHT22;5707;49.588;12.148;2023-11-21T04:32:37;5.80;99.90
11304;DHT22;5707;49.588;12.148;2023-11-21T04:35:04;5.70;99.90
11304;DHT22;5707;49.588;12.148;2023-11-21T04:37:30;5.70;99.90
11304;DHT22;5707;49.588;12.148;2023-11-21T04:39:56;5.60;99.90
11304;DHT22;5707;49.588;12.148;2023-11-21T04:42:21;5.50;99.90
11304;DHT22;5707;49.588;12.148;2023-11-21T04:44:48;5.50;99.90
11304;DHT22;5707;49.588;12.148;2023-11-21T04:47:14;5.40;99.90
11304;DHT22;5707;49.588;12.148;2023-11-21T04:49:42;5.40;99.90
11304;DHT22;5707;49.588;12.148;2023-11-21T04:52:08;5.40;99.90
11304;DHT22;5707;49.588;12.148;2023-11-21T04:54:35;5.30;99.90
11304;DHT22;5707;49.588;12.148;2023-11-21T04:57:01;5.20;99.90
11304;DHT22;5707;49.588;12.148;2023-11-21T04:59:26;5.10;99.90
11304;DHT22;5707;49.588;12.148;2023-11-21T05:01:53;5.00;99.90
11304;DHT22;5707;49.588;12.148;2023-11-21T05:04:19;4.90;99.90
11304;DHT22;5707;49.588;12.148;2023-11-21T05:06:45;4.70;99.90
11304;DHT22;5707;49.588;12.148;2023-11-21T05:09:11;4.60;99.90
11304;DHT22;5707;49.588;12.148;2023-11-21T05:11:37;4.60;99.90
11304;DHT22;5707;49.588;12.148;2023-11-21T05:14:03;4.60;99.90
11304;DHT22;5707;49.588;12.148;2023-11-21T05:16:30;4.60;99.90
11304;DHT22;5707;49.588;12.148;2023-11-21T05:18:56;4.80;99.90
11304;DHT22;5707;49.588;12.148;2023-11-21T05:21:26;4.90;99.90
11304;DHT22;5707;49.588;12.148;2023-11-21T05:23:52;5.10;99.90
11304;DHT22;5707;49.588;12.148;2023-11-21T05:26:18;5.20;99.90
11304;DHT22;5707;49.588;12.148;2023-11-21T05:28:43;5.20;99.90
11304;DHT22;5707;49.588;12.148;2023-11-21T05:31:09;5.30;99.90
11304;DHT22;5707;49.588;12.148;2023-11-21T05:33:36;5.40;99.90
11304;DHT22;5707;49.588;12.148;2023-11-21T05:36:02;5.40;99.90
11304;DHT22;5707;49.588;12.148;2023-11-21T05:38:27;5.50;99.90
11304;DHT22;5707;49.588;12.148;2023-11-21T05:40:53;5.50;99.90
11304;DHT22;5707;49.588;12.148;2023-11-21T05:43:19;5.50;99.90
11304;DHT22;5707;49.588;12.148;2023-11-21T05:45:45;5.50;99.90
11304;DHT22;5707;49.588;12.148;2023-11-21T05:48:10;5.50;99.90
11304;DHT22;5707;49.588;12.148;2023-11-21T05:50:36;5.50;99.90
11304;DHT22;5707;49.588;12.148;2023-11-21T05:53:03;5.60;99.90
11304;DHT22;5707;49.588;12.148;2023-11-21T05:55:29;5.60;99.90
11304;DHT22;5707;49.588;12.148;2023-11-21T05:57:54;5.60;99.90
11304;DHT22;5707;49.588;12.148;2023-11-21T06:00:20;5.60;99.90
11304;DHT22;5707;49.588;12.148;2023-11-21T06:02:50;5.70;99.90
11304;DHT22;5707;49.588;12.148;2023-11-21T06:05:18;5.70;99.90
11304;DHT22;5707;49.588;12.148;2023-11-21T06:07:44;5.70;99.90
11304;DHT22;5707;49.588;12.148;2023-11-21T06:10:11;5.70;99.90
11304;DHT22;5707;49.588;12.148;2023-11-21T06:12:40;5.70;99.90
11304;DHT22;5707;49.588;12.148;2023-11-21T06:15:08;5.70;99.90
11304;DHT22;5707;49.588;12.148;2023-11-21T06:17:35;5.70;99.90
11304;DHT22;5707;49.588;12.148;2023-11-21T06:20:05;5.80;99.90
11304;DHT22;5707;49.588;12.148;2023-11-21T06:22:45;5.70;99.90
11304;DHT22;5707;49.588;12.148;2023-11-21T06:25:12;5.70;99.90
11304;DHT22;5707;49.588;12.148;2023-11-21T06:27:42;5.70;99.90
11304;DHT22;5707;49.588;12.148;2023-11-21T06:30:08;5.70;99.90
11304;DHT22;5707;49.588;12.148;2023-11-21T06:32:35;5.70;99.90
11304;DHT22;5707;49.588;12.148;2023-11-21T06:35:02;5.70;99.90
11304;DHT22;5707;49.588;12.148;2023-11-21T06:37:29;5.70;99.90
11304;DHT22;5707;49.588;12.148;2023-11-21T06:39:55;5.70;99.90
11304;DHT22;5707;49.588;12.148;2023-11-21T06:42:22;5.70;99.90
11304;DHT22;5707;49.588;12.148;2023-11-21T06:44:49;5.80;99.90
11304;DHT22;5707;49.588;12.148;2023-11-21T06:47:17;5.80;99.90
11304;DHT22;5707;49.588;12.148;2023-11-21T06:49:43;5.80;99.90
11304;DHT22;5707;49.588;12.148;2023-11-21T06:52:08;5.90;99.90
11304;DHT22;5707;49.588;12.148;2023-11-21T06:54:34;5.90;99.90
11304;DHT22;5707;49.588;12.148;2023-11-21T06:57:00;5.90;99.90
11304;DHT22;5707;49.588;12.148;2023-11-21T06:59:28;5.90;99.90
11304;DHT22;5707;49.588;12.148;2023-11-21T07:01:54;6.00;99.90
11304;DHT22;5707;49.588;12.148;2023-11-21T07:04:19;6.00;99.90
11304;DHT22;5707;49.588;12.148;2023-11-21T07:06:45;6.00;99.90
11304;DHT22;5707;49.588;12.148;2023-11-21T07:09:11;6.10;99.90
11304;DHT22;5707;49.588;12.148;2023-11-21T07:11:37;6.10;99.90
11304;DHT22;5707;49.588;12.148;2023-11-21T07:14:04;6.20;99.90
11304;DHT22;5707;49.588;12.148;2023-11-21T07:16:34;6.20;99.90
11304;DHT22;5707;49.588;12.148;2023-11-21T07:19:05;6.30;99.90
11304;DHT22;5707;49.588;12.148;2023-11-21T07:21:35;6.30;99.90
11304;DHT22;5707;49.588;12.148;2023-11-21T07:24:02;6.40;99.90
11304;DHT22;5707;49.588;12.148;2023-11-21T07:26:27;6.40;99.90
11304;DHT22;5707;49.588;12.148;2023-11-21T07:28:54;6.40;99.90
11304;DHT22;5707;49.588;12.148;2023-11-21T07:31:19;6.50;99.90
11304;DHT22;5707;49.588;12.148;2023-11-21T07:33:48;6.60;99.90
11304;DHT22;5707;49.588;12.148;2023-11-21T07:36:14;6.60;99.90
11304;DHT22;5707;49.588;12.148;2023-11-21T07:38:40;6.70;99.90
11304;DHT22;5707;49.588;12.148;2023-11-21T07:41:06;6.70;99.90
11304;DHT22;5707;49.588;12.148;2023-11-21T07:43:34;6.70;99.90
11304;DHT22;5707;49.588;12.148;2023-11-21T07:46:04;6.80;99.90
11304;DHT22;5707;49.588;12.148;2023-11-21T07:48:30;6.80;99.90
11304;DHT22;5707;49.588;12.148;2023-11-21T07:50:57;6.90;99.90
11304;DHT22;5707;49.588;12.148;2023-11-21T07:53:24;6.90;99.90
11304;DHT22;5707;49.588;12.148;2023-11-21T07:55:53;6.90;99.90
11304;DHT22;5707;49.588;12.148;2023-11-21T07:58:19;6.90;99.90
11304;DHT22;5707;49.588;12.148;2023-11-21T08:00:44;6.90;99.90
11304;DHT22;5707;49.588;12.148;2023-11-21T08:03:10;6.90;99.90
11304;DHT22;5707;49.588;12.148;2023-11-21T08:05:36;7.00;99.90
11304;DHT22;5707;49.588;12.148;2023-11-21T08:08:02;7.10;99.90
11304;DHT22;5707;49.588;12.148;2023-11-21T08:10:28;7.10;99.90
11304;DHT22;5707;49.588;12.148;2023-11-21T08:12:53;7.30;99.90
11304;DHT22;5707;49.588;12.148;2023-11-21T08:15:19;7.30;99.90
11304;DHT22;5707;49.588;12.148;2023-11-21T08:17:46;7.50;99.90
11304;DHT22;5707;49.588;12.148;2023-11-21T08:20:11;7.60;99.90
11304;DHT22;5707;49.588;12.148;2023-11-21T08:22:37;7.70;99.90
11304;DHT22;5707;49.588;12.148;2023-11-21T08:25:05;7.90;99.90
11304;DHT22;5707;49.588;12.148;2023-11-21T08:27:31;8.00;99.90
11304;DHT22;5707;49.588;12.148;2023-11-21T08:29:57;8.10;99.90
11304;DHT22;5707;49.588;12.148;2023-11-21T08:32:22;8.10;99.90
11304;DHT22;5707;49.588;12.148;2023-11-21T08:34:48;8.20;99.90
11304;DHT22;5707;49.588;12.148;2023-11-21T08:37:16;8.20;99.90
11304;DHT22;5707;49.588;12.148;2023-11-21T08:39:44;8.30;99.90
11304;DHT22;5707;49.588;12.148;2023-11-21T08:42:10;8.30;99.90
11304;DHT22;5707;49.588;12.148;2023-11-21T08:44:35;8.40;99.90
11304;DHT22;5707;49.588;12.148;2023-11-21T08:47:01;8.40;99.90
11304;DHT22;5707;49.588;12.148;2023-11-21T08:49:27;8.50;99.90
11304;DHT22;5707;49.588;12.148;2023-11-21T08:51:54;8.60;99.90
11304;DHT22;5707;49.588;12.148;2023-11-21T08:54:25;8.70;99.90
11304;DHT22;5707;49.588;12.148;2023-11-21T08:56:52;8.80;99.90
11304;DHT22;5707;49.588;12.148;2023-11-21T08:59:17;8.90;99.90
11304;DHT22;5707;49.588;12.148;2023-11-21T09:01:43;9.00;99.90
11304;DHT22;5707;49.588;12.148;2023-11-21T09:04:08;9.00;99.90
11304;DHT22;5707;49.588;12.148;2023-11-21T09:06:34;9.10;99.90
11304;DHT22;5707;49.588;12.148;2023-11-21T09:09:00;9.10;99.90
11304;DHT22;5707;49.588;12.148;2023-11-21T09:11:26;9.10;99.90
11304;DHT22;5707;49.588;12.148;2023-11-21T09:13:56;9.10;99.90
11304;DHT22;5707;49.588;12.148;2023-11-21T09:16:23;9.00;99.90
11304;DHT22;5707;49.588;12.148;2023-11-21T09:18:48;8.90;99.90
11304;DHT22;5707;49.588;12.148;2023-11-21T09:21:14;8.90;99.90
11304;DHT22;5707;49.588;12.148;2023-11-21T09:23:39;9.00;99.90
11304;DHT22;5707;49.588;12.148;2023-11-21T09:26:05;9.00;99.90
11304;DHT22;5707;49.588;12.148;2023-11-21T09:28:31;9.10;99.90
11304;DHT22;5707;49.588;12.148;2023-11-21T09:30:56;9.10;99.90
11304;DHT22;5707;49.588;12.148;2023-11-21T09:33:22;9.10;99.90
11304;DHT22;5707;49.588;12.148;2023-11-21T09:35:50;9.00;99.90
11304;DHT22;5707;49.588;12.148;2023-11-21T09:38:16;8.90;99.90
11304;DHT22;5707;49.588;12.148;2023-11-21T09:40:42;8.80;99.90
11304;DHT22;5707;49.588;12.148;2023-11-21T09:43:17;8.70;99.90
11304;DHT22;5707;49.588;12.148;2023-11-21T09:45:47;8.70;99.90
11304;DHT22;5707;49.588;12.148;2023-11-21T09:48:16;8.50;99.90
11304;DHT22;5707;49.588;12.148;2023-11-21T09:50:43;8.50;99.90
11304;DHT22;5707;49.588;12.148;2023-11-21T09:53:21;8.40;99.90
11304;DHT22;5707;49.588;12.148;2023-11-21T09:55:49;8.30;99.90
11304;DHT22;5707;49.588;12.148;2023-11-21T09:58:16;8.30;99.90
11304;DHT22;5707;49.588;12.148;2023-11-21T10:00:44;8.30;99.90
11304;DHT22;5707;49.588;12.148;2023-11-21T10:03:10;8.30;99.90
11304;DHT22;5707;49.588;12.148;2023-11-21T10:05:37;8.30;99.90
11304;DHT22;5707;49.588;12.148;2023-11-21T10:08:08;8.30;99.90
11304;DHT22;5707;49.588;12.148;2023-11-21T10:10:35;8.30;99.90
11304;DHT22;5707;49.588;12.148;2023-11-21T10:13:04;8.30;99.90
11304;DHT22;5707;49.588;12.148;2023-11-21T10:15:33;8.40;99.90
11304;DHT22;5707;49.588;12.148;2023-11-21T10:18:01;8.40;99.90
11304;DHT22;5707;49.588;12.148;2023-11-21T10:20:28;8.40;99.90
11304;DHT22;5707;49.588;12.148;2023-11-21T10:22:54;8.40;99.90
11304;DHT22;5707;49.588;12.148;2023-11-21T10:25:22;8.50;99.90
11304;DHT22;5707;49.588;12.148;2023-11-21T10:27:49;8.40;99.90
11304;DHT22;5707;49.588;12.148;2023-11-21T10:30:17;8.30;99.90
11304;DHT22;5707;49.588;12.148;2023-11-21T10:32:44;8.30;99.90
11304;DHT22;5707;49.588;12.148;2023-11-21T10:35:09;8.30;99.90
11304;DHT22;5707;49.588;12.148;2023-11-21T10:37:39;8.30;99.90
11304;DHT22;5707;49.588;12.148;2023-11-21T10:40:11;8.40;99.90
11304;DHT22;5707;49.588;12.148;2023-11-21T10:42:38;8.40;99.90
11304;DHT22;5707;49.588;12.148;2023-11-21T10:45:05;8.50;99.90
11304;DHT22;5707;49.588;12.148;2023-11-21T10:47:39;8.60;99.90
11304;DHT22;5707;49.588;12.148;2023-11-21T10:50:05;8.70;99.90
11304;DHT22;5707;49.588;12.148;2023-11-21T10:52:31;8.80;99.90
11304;DHT22;5707;49.588;12.148;2023-11-21T10:54:56;9.00;99.90
11304;DHT22;5707;49.588;12.148;2023-11-21T10:57:25;9.00;99.90
11304;DHT22;5707;49.588;12.148;2023-11-21T10:59:54;9.10;99.90
11304;DHT22;5707;49.588;12.148;2023-11-21T11:02:26;9.10;99.90
11304;DHT22;5707;49.588;12.148;2023-11-21T11:04:54;9.10;99.90
11304;DHT22;5707;49.588;12.148;2023-11-21T11:07:24;9.00;99.90
11304;DHT22;5707;49.588;12.148;2023-11-21T11:09:51;9.00;99.90
11304;DHT22;5707;49.588;12.148;2023-11-21T11:12:17;9.00;99.90
11304;DHT22;5707;49.588;12.148;2023-11-21T11:14:44;9.10;99.90
11304;DHT22;5707;49.588;12.148;2023-11-21T11:17:10;9.20;99.90
11304;DHT22;5707;49.588;12.148;2023-11-21T11:19:36;9.30;99.90
11304;DHT22;5707;49.588;12.148;2023-11-21T11:22:28;9.50;99.90
11304;DHT22;5707;49.588;12.148;2023-11-21T11:28:11;9.90;99.90
11304;DHT22;5707;49.588;12.148;2023-11-21T11:38:22;10.60;99.90
11304;DHT22;5707;49.588;12.148;2023-11-21T11:40:53;10.80;99.90
11304;DHT22;5707;49.588;12.148;2023-11-21T11:43:28;11.00;99.90
11304;DHT22;5707;49.588;12.148;2023-11-21T11:45:57;11.00;99.90
11304;DHT22;5707;49.588;12.148;2023-11-21T11:48:24;11.10;99.90
11304;DHT22;5707;49.588;12.148;2023-11-21T11:53:47;11.00;99.90
11304;DHT22;5707;49.588;12.148;2023-11-21T11:56:23;10.90;99.90
11304;DHT22;5707;49.588;12.148;2023-11-21T11:58:52;11.00;99.90
11304;DHT22;5707;49.588;12.148;2023-11-21T12:01:19;11.10;99.90
11304;DHT22;5707;49.588;12.148;2023-11-21T12:04:05;11.10;99.90
11304;DHT22;5707;49.588;12.148;2023-11-21T12:06:33;11.10;99.90
11304;DHT22;5707;49.588;12.148;2023-11-21T12:09:02;11.00;99.90
11304;DHT22;5707;49.588;12.148;2023-11-21T12:11:31;10.80;99.90
11304;DHT22;5707;49.588;12.148;2023-11-21T12:13:57;10.80;99.90
11304;DHT22;5707;49.588;12.148;2023-11-21T12:16:25;10.80;99.90
11304;DHT22;5707;49.588;12.148;2023-11-21T12:18:53;11.00;99.90
11304;DHT22;5707;49.588;12.148;2023-11-21T12:21:20;11.10;99.90
11304;DHT22;5707;49.588;12.148;2023-11-21T12:23:46;11.10;99.90
11304;DHT22;5707;49.588;12.148;2023-11-21T12:26:13;11.10;99.90
11304;DHT22;5707;49.588;12.148;2023-11-21T12:28:39;11.00;99.90
11304;DHT22;5707;49.588;12.148;2023-11-21T12:31:05;11.00;99.90
11304;DHT22;5707;49.588;12.148;2023-11-21T12:33:35;10.90;99.90
11304;DHT22;5707;49.588;12.148;2023-11-21T12:36:00;10.80;99.90
11304;DHT22;5707;49.588;12.148;2023-11-21T12:38:34;10.60;99.90
11304;DHT22;5707;49.588;12.148;2023-11-21T12:41:00;10.40;99.90
11304;DHT22;5707;49.588;12.148;2023-11-21T12:43:26;10.30;99.90
11304;DHT22;5707;49.588;12.148;2023-11-21T12:46:07;10.20;99.90
11304;DHT22;5707;49.588;12.148;2023-11-21T12:48:37;10.00;99.90
11304;DHT22;5707;49.588;12.148;2023-11-21T12:51:05;10.00;99.90
11304;DHT22;5707;49.588;12.148;2023-11-21T12:53:32;10.10;99.90
11304;DHT22;5707;49.588;12.148;2023-11-21T12:56:05;10.40;99.90
11304;DHT22;5707;49.588;12.148;2023-11-21T12:58:31;10.80;99.90
11304;DHT22;5707;49.588;12.148;2023-11-21T13:00:59;11.30;99.90
11304;DHT22;5707;49.588;12.148;2023-11-21T13:03:25;11.60;99.90
11304;DHT22;5707;49.588;12.148;2023-11-21T13:05:53;11.50;99.90
11304;DHT22;5707;49.588;12.148;2023-11-21T13:08:23;11.30;99.90
11304;DHT22;5707;49.588;12.148;2023-11-21T13:10:53;11.00;99.90
11304;DHT22;5707;49.588;12.148;2023-11-21T13:13:20;10.60;99.90
11304;DHT22;5707;49.588;12.148;2023-11-21T13:15:53;10.10;99.90
11304;DHT22;5707;49.588;12.148;2023-11-21T13:18:23;9.70;99.90
11304;DHT22;5707;49.588;12.148;2023-11-21T13:20:49;9.40;99.90
11304;DHT22;5707;49.588;12.148;2023-11-21T13:23:15;9.30;99.90
11304;DHT22;5707;49.588;12.148;2023-11-21T13:25:44;9.10;99.90
11304;DHT22;5707;49.588;12.148;2023-11-21T13:28:11;9.10;99.90
11304;DHT22;5707;49.588;12.148;2023-11-21T13:30:37;9.00;99.90
11304;DHT22;5707;49.588;12.148;2023-11-21T13:33:06;8.90;99.90
11304;DHT22;5707;49.588;12.148;2023-11-21T13:35:37;8.80;99.90
11304;DHT22;5707;49.588;12.148;2023-11-21T13:38:08;8.70;99.90
11304;DHT22;5707;49.588;12.148;2023-11-21T13:40:35;8.50;99.90
11304;DHT22;5707;49.588;12.148;2023-11-21T13:43:13;8.20;99.90
11304;DHT22;5707;49.588;12.148;2023-11-21T13:45:40;8.00;99.90
11304;DHT22;5707;49.588;12.148;2023-11-21T13:48:07;7.80;99.90
11304;DHT22;5707;49.588;12.148;2023-11-21T13:50:41;7.60;99.90
11304;DHT22;5707;49.588;12.148;2023-11-21T13:53:19;7.50;99.90
11304;DHT22;5707;49.588;12.148;2023-11-21T13:55:51;7.50;99.90
11304;DHT22;5707;49.588;12.148;2023-11-21T13:58:21;7.50;99.90
11304;DHT22;5707;49.588;12.148;2023-11-21T14:01:12;7.60;99.90
11304;DHT22;5707;49.588;12.148;2023-11-21T14:04:08;7.80;99.90
11304;DHT22;5707;49.588;12.148;2023-11-21T14:06:46;8.20;99.90
11304;DHT22;5707;49.588;12.148;2023-11-21T14:09:17;8.70;99.90
11304;DHT22;5707;49.588;12.148;2023-11-21T14:11:52;9.20;99.90
11304;DHT22;5707;49.588;12.148;2023-11-21T14:14:19;9.60;99.90
11304;DHT22;5707;49.588;12.148;2023-11-21T14:16:45;9.70;99.90
11304;DHT22;5707;49.588;12.148;2023-11-21T14:19:11;9.70;99.90
11304;DHT22;5707;49.588;12.148;2023-11-21T14:21:43;9.60;99.90
11304;DHT22;5707;49.588;12.148;2023-11-21T14:24:10;9.40;99.90
11304;DHT22;5707;49.588;12.148;2023-11-21T14:26:41;9.30;99.90
11304;DHT22;5707;49.588;12.148;2023-11-21T14:29:08;9.10;99.90
11304;DHT22;5707;49.588;12.148;2023-11-21T14:31:34;8.90;99.90
11304;DHT22;5707;49.588;12.148;2023-11-21T14:34:00;8.70;99.90
11304;DHT22;5707;49.588;12.148;2023-11-21T14:36:31;8.60;99.90
11304;DHT22;5707;49.588;12.148;2023-11-21T14:38:57;8.40;99.90
11304;DHT22;5707;49.588;12.148;2023-11-21T14:41:22;8.30;99.90
11304;DHT22;5707;49.588;12.148;2023-11-21T14:43:50;8.20;99.90
11304;DHT22;5707;49.588;12.148;2023-11-21T14:46:16;8.10;99.90
11304;DHT22;5707;49.588;12.148;2023-11-21T14:48:45;8.00;99.90
11304;DHT22;5707;49.588;12.148;2023-11-21T14:51:24;7.90;99.90
11304;DHT22;5707;49.588;12.148;2023-11-21T14:54:16;7.70;99.90
11304;DHT22;5707;49.588;12.148;2023-11-21T14:56:51;7.60;99.90
11304;DHT22;5707;49.588;12.148;2023-11-21T14:59:18;7.50;99.90
11304;DHT22;5707;49.588;12.148;2023-11-21T15:01:43;7.40;99.90
11304;DHT22;5707;49.588;12.148;2023-11-21T15:04:22;7.30;99.90
11304;DHT22;5707;49.588;12.148;2023-11-21T15:07:02;7.20;99.90
11304;DHT22;5707;49.588;12.148;2023-11-21T15:09:28;7.10;99.90
11304;DHT22;5707;49.588;12.148;2023-11-21T15:12:04;7.10;99.90
11304;DHT22;5707;49.588;12.148;2023-11-21T15:14:46;7.10;99.90
11304;DHT22;5707;49.588;12.148;2023-11-21T15:17:15;7.00;99.90
11304;DHT22;5707;49.588;12.148;2023-11-21T15:19:48;7.00;99.90
11304;DHT22;5707;49.588;12.148;2023-11-21T15:22:13;7.00;99.90
11304;DHT22;5707;49.588;12.148;2023-11-21T15:24:41;6.90;99.90
11304;DHT22;5707;49.588;12.148;2023-11-21T15:27:08;6.90;99.90
11304;DHT22;5707;49.588;12.148;2023-11-21T15:29:34;6.80;99.90
11304;DHT22;5707;49.588;12.148;2023-11-21T15:32:00;6.80;99.90
11304;DHT22;5707;49.588;12.148;2023-11-21T15:34:26;6.80;99.90
11304;DHT22;5707;49.588;12.148;2023-11-21T15:36:53;6.80;99.90
11304;DHT22;5707;49.588;12.148;2023-11-21T15:39:20;6.80;99.90
11304;DHT22;5707;49.588;12.148;2023-11-21T15:41:56;6.90;99.90
11304;DHT22;5707;49.588;12.148;2023-11-21T15:44:23;6.90;99.90
11304;DHT22;5707;49.588;12.148;2023-11-21T15:46:50;6.90;99.90
11304;DHT22;5707;49.588;12.148;2023-11-21T15:49:16;6.80;99.90
11304;DHT22;5707;49.588;12.148;2023-11-21T15:51:44;6.80;99.90
11304;DHT22;5707;49.588;12.148;2023-11-21T15:54:21;6.80;99.90
11304;DHT22;5707;49.588;12.148;2023-11-21T15:56:47;6.80;99.90
11304;DHT22;5707;49.588;12.148;2023-11-21T15:59:13;6.80;99.90
11304;DHT22;5707;49.588;12.148;2023-11-21T16:01:39;6.80;99.90